sensor_id;sensor_type;location;lat;lon;timestamp;P1;durP1;ratioP1;P2;durP2;ratioP2
40997;SDS011;26740;45.944;12.480;2023-08-12T00:00:31;0.90;;;0.68;;
40997;SDS011;26740;45.944;12.480;2023-08-12T00:02:57;1.00;;;0.70;;
40997;SDS011;26740;45.944;12.480;2023-08-12T00:05:23;0.82;;;0.80;;
40997;SDS011;26740;45.944;12.480;2023-08-12T00:07:48;1.00;;;0.55;;
40997;SDS011;26740;45.944;12.480;2023-08-12T00:10:14;0.70;;;0.70;;
40997;SDS011;26740;45.944;12.480;2023-08-12T00:12:40;1.33;;;0.65;;
40997;SDS011;26740;45.944;12.480;2023-08-12T00:15:05;1.60;;;1.05;;
40997;SDS011;26740;45.944;12.480;2023-08-12T00:17:32;1.10;;;1.00;;
40997;SDS011;26740;45.944;12.480;2023-08-12T00:19:58;1.20;;;0.65;;
40997;SDS011;26740;45.944;12.480;2023-08-12T00:22:24;1.70;;;0.90;;
40997;SDS011;26740;45.944;12.480;2023-08-12T00:24:49;1.48;;;1.15;;
40997;SDS011;26740;45.944;12.480;2023-08-12T00:27:14;0.90;;;0.80;;
40997;SDS011;26740;45.944;12.480;2023-08-12T00:29:40;3.20;;;1.08;;
40997;SDS011;26740;45.944;12.480;2023-08-12T00:32:05;4.00;;;0.60;;
40997;SDS011;26740;45.944;12.480;2023-08-12T00:34:31;1.33;;;1.00;;
40997;SDS011;26740;45.944;12.480;2023-08-12T00:36:56;2.83;;;0.63;;
40997;SDS011;26740;45.944;12.480;2023-08-12T00:39:21;2.13;;;0.60;;
40997;SDS011;26740;45.944;12.480;2023-08-12T00:41:47;0.80;;;0.60;;
40997;SDS011;26740;45.944;12.480;2023-08-12T00:44:13;2.63;;;0.77;;
40997;SDS011;26740;45.944;12.480;2023-08-12T00:46:38;0.80;;;0.60;;
40997;SDS011;26740;45.944;12.480;2023-08-12T00:49:05;0.98;;;0.88;;
40997;SDS011;26740;45.944;12.480;2023-08-12T00:51:31;1.95;;;0.45;;
40997;SDS011;26740;45.944;12.480;2023-08-12T00:53:59;2.05;;;0.80;;
40997;SDS011;26740;45.944;12.480;2023-08-12T00:56:25;0.63;;;0.50;;
40997;SDS011;26740;45.944;12.480;2023-08-12T00:58:52;0.77;;;0.57;;
40997;SDS011;26740;45.944;12.480;2023-08-12T01:01:17;1.02;;;0.50;;
40997;SDS011;26740;45.944;12.480;2023-08-12T01:03:43;0.88;;;0.63;;
40997;SDS011;26740;45.944;12.480;2023-08-12T01:06:08;1.35;;;0.70;;
40997;SDS011;26740;45.944;12.480;2023-08-12T01:08:33;2.33;;;0.70;;
40997;SDS011;26740;45.944;12.480;2023-08-12T01:11:06;3.22;;;0.40;;
40997;SDS011;26740;45.944;12.480;2023-08-12T01:13:39;0.82;;;0.60;;
40997;SDS011;26740;45.944;12.480;2023-08-12T01:16:10;0.88;;;0.60;;
40997;SDS011;26740;45.944;12.480;2023-08-12T01:18:36;2.05;;;0.73;;
40997;SDS011;26740;45.944;12.480;2023-08-12T01:21:03;2.88;;;0.50;;
40997;SDS011;26740;45.944;12.480;2023-08-12T01:23:30;2.28;;;0.55;;
40997;SDS011;26740;45.944;12.480;2023-08-12T01:25:55;1.60;;;0.65;;
40997;SDS011;26740;45.944;12.480;2023-08-12T01:28:21;1.25;;;0.70;;
40997;SDS011;26740;45.944;12.480;2023-08-12T01:33:18;0.77;;;0.60;;
40997;SDS011;26740;45.944;12.480;2023-08-12T01:35:47;2.38;;;0.82;;
40997;SDS011;26740;45.944;12.480;2023-08-12T01:38:15;1.08;;;0.57;;
40997;SDS011;26740;45.944;12.480;2023-08-12T01:40:41;1.27;;;0.65;;
40997;SDS011;26740;45.944;12.480;2023-08-12T01:43:07;0.85;;;0.65;;
40997;SDS011;26740;45.944;12.480;2023-08-12T01:45:33;1.67;;;0.73;;
40997;SDS011;26740;45.944;12.480;2023-08-12T01:47:59;1.33;;;0.63;;
40997;SDS011;26740;45.944;12.480;2023-08-12T01:50:24;0.77;;;0.57;;
40997;SDS011;26740;45.944;12.480;2023-08-12T01:52:50;1.67;;;0.82;;
40997;SDS011;26740;45.944;12.480;2023-08-12T01:55:16;0.65;;;0.47;;
40997;SDS011;26740;45.944;12.480;2023-08-12T01:57:41;0.57;;;0.55;;
40997;SDS011;26740;45.944;12.480;2023-08-12T02:00:07;1.20;;;0.60;;
40997;SDS011;26740;45.944;12.480;2023-08-12T02:02:33;1.63;;;0.70;;
40997;SDS011;26740;45.944;12.480;2023-08-12T02:04:58;2.53;;;0.60;;
40997;SDS011;26740;45.944;12.480;2023-08-12T02:07:24;1.60;;;0.65;;
40997;SDS011;26740;45.944;12.480;2023-08-12T02:09:49;1.50;;;0.85;;
40997;SDS011;26740;45.944;12.480;2023-08-12T02:12:14;0.43;;;0.40;;
40997;SDS011;26740;45.944;12.480;2023-08-12T02:14:40;1.25;;;0.57;;
40997;SDS011;26740;45.944;12.480;2023-08-12T02:17:05;1.40;;;0.80;;
40997;SDS011;26740;45.944;12.480;2023-08-12T02:19:31;1.58;;;0.63;;
40997;SDS011;26740;45.944;12.480;2023-08-12T02:21:57;1.02;;;0.50;;
40997;SDS011;26740;45.944;12.480;2023-08-12T02:24:22;1.95;;;0.63;;
40997;SDS011;26740;45.944;12.480;2023-08-12T02:26:48;0.90;;;0.50;;
40997;SDS011;26740;45.944;12.480;2023-08-12T02:29:13;0.70;;;0.40;;
40997;SDS011;26740;45.944;12.480;2023-08-12T02:31:39;0.73;;;0.43;;
40997;SDS011;26740;45.944;12.480;2023-08-12T02:34:04;1.23;;;0.60;;
40997;SDS011;26740;45.944;12.480;2023-08-12T02:36:29;4.63;;;0.50;;
40997;SDS011;26740;45.944;12.480;2023-08-12T02:38:55;2.60;;;0.70;;
40997;SDS011;26740;45.944;12.480;2023-08-12T02:41:20;1.10;;;0.50;;
40997;SDS011;26740;45.944;12.480;2023-08-12T02:43:45;0.88;;;0.45;;
40997;SDS011;26740;45.944;12.480;2023-08-12T02:46:11;3.70;;;0.93;;
40997;SDS011;26740;45.944;12.480;2023-08-12T02:48:37;1.25;;;0.43;;
40997;SDS011;26740;45.944;12.480;2023-08-12T02:51:03;0.98;;;0.65;;
40997;SDS011;26740;45.944;12.480;2023-08-12T02:53:28;0.80;;;0.50;;
40997;SDS011;26740;45.944;12.480;2023-08-12T02:55:54;1.92;;;0.50;;
40997;SDS011;26740;45.944;12.480;2023-08-12T02:58:19;3.08;;;0.60;;
40997;SDS011;26740;45.944;12.480;2023-08-12T03:00:44;3.67;;;0.40;;
40997;SDS011;26740;45.944;12.480;2023-08-12T03:03:10;1.40;;;0.70;;
40997;SDS011;26740;45.944;12.480;2023-08-12T03:05:35;1.98;;;0.60;;
40997;SDS011;26740;45.944;12.480;2023-08-12T03:08:01;3.10;;;0.50;;
40997;SDS011;26740;45.944;12.480;2023-08-12T03:10:28;0.95;;;0.63;;
40997;SDS011;26740;45.944;12.480;2023-08-12T03:12:54;1.67;;;0.68;;
40997;SDS011;26740;45.944;12.480;2023-08-12T03:15:19;0.75;;;0.60;;
40997;SDS011;26740;45.944;12.480;2023-08-12T03:17:45;2.00;;;0.57;;
40997;SDS011;26740;45.944;12.480;2023-08-12T03:20:10;2.08;;;0.80;;
40997;SDS011;26740;45.944;12.480;2023-08-12T03:22:36;1.92;;;0.50;;
40997;SDS011;26740;45.944;12.480;2023-08-12T03:25:02;2.25;;;0.50;;
40997;SDS011;26740;45.944;12.480;2023-08-12T03:27:27;1.90;;;0.70;;
40997;SDS011;26740;45.944;12.480;2023-08-12T03:29:53;0.90;;;0.50;;
40997;SDS011;26740;45.944;12.480;2023-08-12T03:32:18;1.17;;;0.57;;
40997;SDS011;26740;45.944;12.480;2023-08-12T03:34:43;1.85;;;0.40;;
40997;SDS011;26740;45.944;12.480;2023-08-12T03:37:09;1.60;;;0.57;;
40997;SDS011;26740;45.944;12.480;2023-08-12T03:39:34;0.95;;;0.73;;
40997;SDS011;26740;45.944;12.480;2023-08-12T03:41:59;4.32;;;0.68;;
40997;SDS011;26740;45.944;12.480;2023-08-12T03:44:25;4.25;;;0.65;;
40997;SDS011;26740;45.944;12.480;2023-08-12T03:46:51;0.85;;;0.75;;
40997;SDS011;26740;45.944;12.480;2023-08-12T03:49:16;0.73;;;0.50;;
40997;SDS011;26740;45.944;12.480;2023-08-12T03:51:41;0.65;;;0.60;;
40997;SDS011;26740;45.944;12.480;2023-08-12T03:54:07;0.57;;;0.50;;
40997;SDS011;26740;45.944;12.480;2023-08-12T03:56:32;0.73;;;0.40;;
40997;SDS011;26740;45.944;12.480;2023-08-12T03:58:58;2.42;;;0.75;;
40997;SDS011;26740;45.944;12.480;2023-08-12T04:01:23;4.10;;;0.65;;
40997;SDS011;26740;45.944;12.480;2023-08-12T04:03:49;1.42;;;0.60;;
40997;SDS011;26740;45.944;12.480;2023-08-12T04:06:14;0.98;;;0.60;;
40997;SDS011;26740;45.944;12.480;2023-08-12T04:08:39;2.05;;;0.82;;
40997;SDS011;26740;45.944;12.480;2023-08-12T04:11:05;2.35;;;0.60;;
40997;SDS011;26740;45.944;12.480;2023-08-12T04:13:30;2.47;;;0.73;;
40997;SDS011;26740;45.944;12.480;2023-08-12T04:15:56;2.80;;;0.70;;
40997;SDS011;26740;45.944;12.480;2023-08-12T04:18:21;0.63;;;0.60;;
40997;SDS011;26740;45.944;12.480;2023-08-12T04:25:57;0.50;;;0.50;;
40997;SDS011;26740;45.944;12.480;2023-08-12T04:28:22;0.73;;;0.73;;
40997;SDS011;26740;45.944;12.480;2023-08-12T04:30:48;1.23;;;0.85;;
40997;SDS011;26740;45.944;12.480;2023-08-12T04:33:15;0.95;;;0.47;;
40997;SDS011;26740;45.944;12.480;2023-08-12T04:35:41;1.63;;;0.70;;
40997;SDS011;26740;45.944;12.480;2023-08-12T04:38:06;1.90;;;0.60;;
40997;SDS011;26740;45.944;12.480;2023-08-12T04:40:32;2.30;;;0.60;;
40997;SDS011;26740;45.944;12.480;2023-08-12T04:43:00;1.50;;;0.73;;
40997;SDS011;26740;45.944;12.480;2023-08-12T04:45:27;5.38;;;0.40;;
40997;SDS011;26740;45.944;12.480;2023-08-12T04:47:52;3.05;;;1.00;;
40997;SDS011;26740;45.944;12.480;2023-08-12T04:50:18;0.60;;;0.40;;
40997;SDS011;26740;45.944;12.480;2023-08-12T04:52:44;0.40;;;0.30;;
40997;SDS011;26740;45.944;12.480;2023-08-12T04:55:09;2.70;;;0.60;;
40997;SDS011;26740;45.944;12.480;2023-08-12T04:57:38;0.57;;;0.45;;
40997;SDS011;26740;45.944;12.480;2023-08-12T05:00:04;1.63;;;0.57;;
40997;SDS011;26740;45.944;12.480;2023-08-12T05:02:30;1.80;;;0.60;;
40997;SDS011;26740;45.944;12.480;2023-08-12T05:04:55;0.75;;;0.60;;
40997;SDS011;26740;45.944;12.480;2023-08-12T05:07:21;2.22;;;0.50;;
40997;SDS011;26740;45.944;12.480;2023-08-12T05:09:46;0.60;;;0.40;;
40997;SDS011;26740;45.944;12.480;2023-08-12T05:12:12;0.40;;;0.38;;
40997;SDS011;26740;45.944;12.480;2023-08-12T05:14:38;0.45;;;0.20;;
40997;SDS011;26740;45.944;12.480;2023-08-12T05:17:04;0.50;;;0.30;;
40997;SDS011;26740;45.944;12.480;2023-08-12T05:19:30;0.80;;;0.50;;
40997;SDS011;26740;45.944;12.480;2023-08-12T05:21:56;0.95;;;0.25;;
40997;SDS011;26740;45.944;12.480;2023-08-12T05:24:21;1.25;;;0.50;;
40997;SDS011;26740;45.944;12.480;2023-08-12T05:26:46;0.43;;;0.40;;
40997;SDS011;26740;45.944;12.480;2023-08-12T05:29:12;0.40;;;0.30;;
40997;SDS011;26740;45.944;12.480;2023-08-12T05:31:37;0.60;;;0.30;;
40997;SDS011;26740;45.944;12.480;2023-08-12T05:34:02;0.30;;;0.30;;
40997;SDS011;26740;45.944;12.480;2023-08-12T05:36:28;0.77;;;0.40;;
40997;SDS011;26740;45.944;12.480;2023-08-12T05:38:54;0.40;;;0.30;;
40997;SDS011;26740;45.944;12.480;2023-08-12T05:41:19;0.30;;;0.20;;
40997;SDS011;26740;45.944;12.480;2023-08-12T05:43:45;1.00;;;0.30;;
40997;SDS011;26740;45.944;12.480;2023-08-12T05:46:10;3.15;;;0.25;;
40997;SDS011;26740;45.944;12.480;2023-08-12T05:48:35;0.85;;;0.30;;
40997;SDS011;26740;45.944;12.480;2023-08-12T05:51:01;1.20;;;0.30;;
40997;SDS011;26740;45.944;12.480;2023-08-12T05:53:26;0.50;;;0.30;;
40997;SDS011;26740;45.944;12.480;2023-08-12T05:55:51;1.50;;;0.38;;
40997;SDS011;26740;45.944;12.480;2023-08-12T05:58:17;1.75;;;0.40;;
40997;SDS011;26740;45.944;12.480;2023-08-12T06:00:42;0.60;;;0.40;;
40997;SDS011;26740;45.944;12.480;2023-08-12T06:03:10;0.80;;;0.35;;
40997;SDS011;26740;45.944;12.480;2023-08-12T06:05:36;1.23;;;0.38;;
40997;SDS011;26740;45.944;12.480;2023-08-12T06:08:02;1.00;;;0.47;;
40997;SDS011;26740;45.944;12.480;2023-08-12T06:10:27;0.95;;;0.43;;
40997;SDS011;26740;45.944;12.480;2023-08-12T06:12:52;2.05;;;0.30;;
40997;SDS011;26740;45.944;12.480;2023-08-12T06:15:18;0.60;;;0.30;;
40997;SDS011;26740;45.944;12.480;2023-08-12T06:17:43;0.40;;;0.30;;
40997;SDS011;26740;45.944;12.480;2023-08-12T06:20:08;1.27;;;0.30;;
40997;SDS011;26740;45.944;12.480;2023-08-12T06:22:34;1.45;;;0.40;;
40997;SDS011;26740;45.944;12.480;2023-08-12T06:24:59;0.65;;;0.30;;
40997;SDS011;26740;45.944;12.480;2023-08-12T06:27:25;0.57;;;0.40;;
40997;SDS011;26740;45.944;12.480;2023-08-12T06:29:50;1.65;;;0.45;;
40997;SDS011;26740;45.944;12.480;2023-08-12T06:32:15;1.50;;;0.50;;
40997;SDS011;26740;45.944;12.480;2023-08-12T06:34:41;1.25;;;0.40;;
40997;SDS011;26740;45.944;12.480;2023-08-12T06:37:06;0.52;;;0.45;;
40997;SDS011;26740;45.944;12.480;2023-08-12T06:39:32;0.70;;;0.40;;
40997;SDS011;26740;45.944;12.480;2023-08-12T06:41:57;0.60;;;0.40;;
40997;SDS011;26740;45.944;12.480;2023-08-12T06:44:24;0.60;;;0.50;;
40997;SDS011;26740;45.944;12.480;2023-08-12T06:46:49;0.77;;;0.57;;
40997;SDS011;26740;45.944;12.480;2023-08-12T06:49:15;1.70;;;0.85;;
40997;SDS011;26740;45.944;12.480;2023-08-12T06:51:41;0.50;;;0.25;;
40997;SDS011;26740;45.944;12.480;2023-08-12T06:54:06;0.30;;;0.30;;
40997;SDS011;26740;45.944;12.480;2023-08-12T06:56:31;3.13;;;0.40;;
40997;SDS011;26740;45.944;12.480;2023-08-12T06:58:57;1.27;;;0.40;;
40997;SDS011;26740;45.944;12.480;2023-08-12T07:01:22;0.30;;;0.28;;
40997;SDS011;26740;45.944;12.480;2023-08-12T07:03:49;0.50;;;0.20;;
40997;SDS011;26740;45.944;12.480;2023-08-12T07:06:14;0.55;;;0.20;;
40997;SDS011;26740;45.944;12.480;2023-08-12T07:08:40;1.77;;;0.32;;
40997;SDS011;26740;45.944;12.480;2023-08-12T07:11:05;0.65;;;0.35;;
40997;SDS011;26740;45.944;12.480;2023-08-12T07:13:30;0.45;;;0.30;;
40997;SDS011;26740;45.944;12.480;2023-08-12T07:15:56;0.47;;;0.25;;
40997;SDS011;26740;45.944;12.480;2023-08-12T07:18:21;0.30;;;0.30;;
40997;SDS011;26740;45.944;12.480;2023-08-12T07:20:48;2.85;;;0.60;;
40997;SDS011;26740;45.944;12.480;2023-08-12T07:23:13;0.38;;;0.22;;
40997;SDS011;26740;45.944;12.480;2023-08-12T07:25:39;0.43;;;0.30;;
40997;SDS011;26740;45.944;12.480;2023-08-12T07:28:04;0.65;;;0.40;;
40997;SDS011;26740;45.944;12.480;2023-08-12T07:30:30;0.40;;;0.20;;
40997;SDS011;26740;45.944;12.480;2023-08-12T07:32:55;0.20;;;0.20;;
40997;SDS011;26740;45.944;12.480;2023-08-12T07:35:21;0.40;;;0.40;;
40997;SDS011;26740;45.944;12.480;2023-08-12T07:37:46;0.40;;;0.40;;
40997;SDS011;26740;45.944;12.480;2023-08-12T07:40:11;0.60;;;0.40;;
40997;SDS011;26740;45.944;12.480;2023-08-12T07:42:37;0.30;;;0.30;;
40997;SDS011;26740;45.944;12.480;2023-08-12T07:45:03;0.50;;;0.40;;
40997;SDS011;26740;45.944;12.480;2023-08-12T07:47:28;0.60;;;0.30;;
40997;SDS011;26740;45.944;12.480;2023-08-12T07:49:54;0.73;;;0.30;;
40997;SDS011;26740;45.944;12.480;2023-08-12T07:52:19;0.30;;;0.30;;
40997;SDS011;26740;45.944;12.480;2023-08-12T07:54:45;0.60;;;0.30;;
40997;SDS011;26740;45.944;12.480;2023-08-12T07:57:10;0.32;;;0.22;;
40997;SDS011;26740;45.944;12.480;2023-08-12T07:59:36;0.38;;;0.30;;
40997;SDS011;26740;45.944;12.480;2023-08-12T08:02:01;1.00;;;0.70;;
40997;SDS011;26740;45.944;12.480;2023-08-12T08:04:27;0.50;;;0.35;;
40997;SDS011;26740;45.944;12.480;2023-08-12T08:06:52;0.50;;;0.30;;
40997;SDS011;26740;45.944;12.480;2023-08-12T08:09:17;0.55;;;0.52;;
40997;SDS011;26740;45.944;12.480;2023-08-12T08:11:43;0.55;;;0.22;;
40997;SDS011;26740;45.944;12.480;2023-08-12T08:14:08;1.10;;;0.40;;
40997;SDS011;26740;45.944;12.480;2023-08-12T08:16:34;0.40;;;0.30;;
40997;SDS011;26740;45.944;12.480;2023-08-12T08:18:59;2.38;;;0.30;;
40997;SDS011;26740;45.944;12.480;2023-08-12T08:21:25;0.52;;;0.30;;
40997;SDS011;26740;45.944;12.480;2023-08-12T08:23:50;0.30;;;0.30;;
40997;SDS011;26740;45.944;12.480;2023-08-12T08:26:16;0.50;;;0.40;;
40997;SDS011;26740;45.944;12.480;2023-08-12T08:28:42;0.32;;;0.28;;
40997;SDS011;26740;45.944;12.480;2023-08-12T08:31:08;0.40;;;0.20;;
40997;SDS011;26740;45.944;12.480;2023-08-12T08:33:34;1.08;;;0.40;;
40997;SDS011;26740;45.944;12.480;2023-08-12T08:35:59;0.50;;;0.35;;
40997;SDS011;26740;45.944;12.480;2023-08-12T08:38:25;1.17;;;0.30;;
40997;SDS011;26740;45.944;12.480;2023-08-12T08:40:50;0.30;;;0.30;;
40997;SDS011;26740;45.944;12.480;2023-08-12T08:43:19;2.92;;;0.40;;
40997;SDS011;26740;45.944;12.480;2023-08-12T08:45:45;0.63;;;0.32;;
40997;SDS011;26740;45.944;12.480;2023-08-12T08:48:11;0.57;;;0.38;;
40997;SDS011;26740;45.944;12.480;2023-08-12T08:50:37;2.22;;;1.08;;
40997;SDS011;26740;45.944;12.480;2023-08-12T08:53:03;0.43;;;0.30;;
40997;SDS011;26740;45.944;12.480;2023-08-12T08:55:29;0.50;;;0.30;;
40997;SDS011;26740;45.944;12.480;2023-08-12T08:57:56;0.57;;;0.32;;
40997;SDS011;26740;45.944;12.480;2023-08-12T09:00:21;1.00;;;0.20;;
40997;SDS011;26740;45.944;12.480;2023-08-12T09:02:47;0.40;;;0.20;;
40997;SDS011;26740;45.944;12.480;2023-08-12T09:05:15;1.83;;;0.30;;
40997;SDS011;26740;45.944;12.480;2023-08-12T09:07:41;0.45;;;0.30;;
40997;SDS011;26740;45.944;12.480;2023-08-12T09:10:07;0.30;;;0.25;;
40997;SDS011;26740;45.944;12.480;2023-08-12T09:12:32;0.45;;;0.30;;
40997;SDS011;26740;45.944;12.480;2023-08-12T09:14:58;0.40;;;0.40;;
40997;SDS011;26740;45.944;12.480;2023-08-12T09:17:23;0.30;;;0.30;;
40997;SDS011;26740;45.944;12.480;2023-08-12T09:19:50;0.70;;;0.20;;
40997;SDS011;26740;45.944;12.480;2023-08-12T09:22:15;16.92;;;0.70;;
40997;SDS011;26740;45.944;12.480;2023-08-12T09:24:40;0.50;;;0.30;;
40997;SDS011;26740;45.944;12.480;2023-08-12T09:27:08;0.85;;;0.45;;
40997;SDS011;26740;45.944;12.480;2023-08-12T09:29:34;0.40;;;0.30;;
40997;SDS011;26740;45.944;12.480;2023-08-12T09:32:33;0.63;;;0.30;;
40997;SDS011;26740;45.944;12.480;2023-08-12T09:34:52;0.63;;;0.30;;
40997;SDS011;26740;45.944;12.480;2023-08-12T09:37:18;0.82;;;0.40;;
40997;SDS011;26740;45.944;12.480;2023-08-12T09:39:44;1.85;;;0.30;;
40997;SDS011;26740;45.944;12.480;2023-08-12T09:42:13;0.50;;;0.30;;
40997;SDS011;26740;45.944;12.480;2023-08-12T09:44:38;0.43;;;0.30;;
40997;SDS011;26740;45.944;12.480;2023-08-12T09:47:05;0.35;;;0.30;;
40997;SDS011;26740;45.944;12.480;2023-08-12T09:49:30;0.43;;;0.20;;
40997;SDS011;26740;45.944;12.480;2023-08-12T09:51:56;0.30;;;0.20;;
40997;SDS011;26740;45.944;12.480;2023-08-12T09:54:22;0.43;;;0.40;;
40997;SDS011;26740;45.944;12.480;2023-08-12T09:56:49;0.40;;;0.30;;
40997;SDS011;26740;45.944;12.480;2023-08-12T09:59:19;0.30;;;0.30;;
40997;SDS011;26740;45.944;12.480;2023-08-12T10:04:23;0.68;;;0.30;;
40997;SDS011;26740;45.944;12.480;2023-08-12T10:06:52;0.47;;;0.20;;
40997;SDS011;26740;45.944;12.480;2023-08-12T10:09:17;0.60;;;0.30;;
40997;SDS011;26740;45.944;12.480;2023-08-12T10:11:43;0.40;;;0.30;;
40997;SDS011;26740;45.944;12.480;2023-08-12T10:14:09;0.40;;;0.30;;
40997;SDS011;26740;45.944;12.480;2023-08-12T10:16:35;0.22;;;0.20;;
40997;SDS011;26740;45.944;12.480;2023-08-12T10:19:01;0.40;;;0.30;;
40997;SDS011;26740;45.944;12.480;2023-08-12T10:21:27;0.40;;;0.30;;
40997;SDS011;26740;45.944;12.480;2023-08-12T10:23:53;0.22;;;0.20;;
40997;SDS011;26740;45.944;12.480;2023-08-12T10:26:19;0.20;;;0.20;;
40997;SDS011;26740;45.944;12.480;2023-08-12T10:28:44;0.30;;;0.30;;
40997;SDS011;26740;45.944;12.480;2023-08-12T10:31:11;0.28;;;0.20;;
40997;SDS011;26740;45.944;12.480;2023-08-12T10:33:37;0.77;;;0.30;;
40997;SDS011;26740;45.944;12.480;2023-08-12T10:36:03;0.20;;;0.20;;
40997;SDS011;26740;45.944;12.480;2023-08-12T10:38:30;0.20;;;0.20;;
40997;SDS011;26740;45.944;12.480;2023-08-12T10:41:14;0.32;;;0.22;;
40997;SDS011;26740;45.944;12.480;2023-08-12T10:43:49;0.70;;;0.70;;
40997;SDS011;26740;45.944;12.480;2023-08-12T10:46:22;0.68;;;0.50;;
40997;SDS011;26740;45.944;12.480;2023-08-12T10:54:23;0.80;;;0.20;;
40997;SDS011;26740;45.944;12.480;2023-08-12T10:59:46;0.60;;;0.40;;
40997;SDS011;26740;45.944;12.480;2023-08-12T11:02:06;0.80;;;0.30;;
40997;SDS011;26740;45.944;12.480;2023-08-12T11:04:37;0.30;;;0.30;;
40997;SDS011;26740;45.944;12.480;2023-08-12T11:07:13;0.45;;;0.30;;
40997;SDS011;26740;45.944;12.480;2023-08-12T11:09:39;0.55;;;0.20;;
40997;SDS011;26740;45.944;12.480;2023-08-12T11:12:05;1.38;;;0.35;;
40997;SDS011;26740;45.944;12.480;2023-08-12T11:14:30;2.17;;;0.38;;
40997;SDS011;26740;45.944;12.480;2023-08-12T11:16:55;0.50;;;0.35;;
40997;SDS011;26740;45.944;12.480;2023-08-12T11:19:21;0.40;;;0.30;;
40997;SDS011;26740;45.944;12.480;2023-08-12T11:21:47;0.28;;;0.20;;
40997;SDS011;26740;45.944;12.480;2023-08-12T11:24:12;1.08;;;0.35;;
40997;SDS011;26740;45.944;12.480;2023-08-12T11:26:38;0.40;;;0.30;;
40997;SDS011;26740;45.944;12.480;2023-08-12T11:29:10;1.85;;;0.38;;
40997;SDS011;26740;45.944;12.480;2023-08-12T11:31:36;0.63;;;0.20;;
40997;SDS011;26740;45.944;12.480;2023-08-12T11:34:01;0.30;;;0.30;;
40997;SDS011;26740;45.944;12.480;2023-08-12T11:36:28;0.98;;;0.30;;
40997;SDS011;26740;45.944;12.480;2023-08-12T11:38:56;0.40;;;0.30;;
40997;SDS011;26740;45.944;12.480;2023-08-12T11:41:24;0.52;;;0.30;;
40997;SDS011;26740;45.944;12.480;2023-08-12T11:43:50;0.47;;;0.20;;
40997;SDS011;26740;45.944;12.480;2023-08-12T11:46:15;0.30;;;0.20;;
40997;SDS011;26740;45.944;12.480;2023-08-12T11:48:43;0.22;;;0.22;;
40997;SDS011;26740;45.944;12.480;2023-08-12T11:51:08;0.40;;;0.22;;
40997;SDS011;26740;45.944;12.480;2023-08-12T11:53:34;0.20;;;0.20;;
40997;SDS011;26740;45.944;12.480;2023-08-12T11:55:59;1.17;;;0.22;;
40997;SDS011;26740;45.944;12.480;2023-08-12T11:58:24;1.27;;;0.30;;
40997;SDS011;26740;45.944;12.480;2023-08-12T12:00:50;0.70;;;0.25;;
40997;SDS011;26740;45.944;12.480;2023-08-12T12:03:16;0.47;;;0.20;;
40997;SDS011;26740;45.944;12.480;2023-08-12T12:05:41;0.55;;;0.20;;
40997;SDS011;26740;45.944;12.480;2023-08-12T12:08:06;0.75;;;0.20;;
40997;SDS011;26740;45.944;12.480;2023-08-12T12:10:34;0.40;;;0.20;;
40997;SDS011;26740;45.944;12.480;2023-08-12T12:13:01;1.33;;;0.20;;
40997;SDS011;26740;45.944;12.480;2023-08-12T12:15:27;0.30;;;0.30;;
40997;SDS011;26740;45.944;12.480;2023-08-12T12:17:52;0.20;;;0.20;;
40997;SDS011;26740;45.944;12.480;2023-08-12T12:20:18;0.20;;;0.20;;
40997;SDS011;26740;45.944;12.480;2023-08-12T12:22:44;0.45;;;0.20;;
40997;SDS011;26740;45.944;12.480;2023-08-12T12:25:11;1.50;;;0.30;;
40997;SDS011;26740;45.944;12.480;2023-08-12T12:27:37;0.40;;;0.30;;
40997;SDS011;26740;45.944;12.480;2023-08-12T12:30:03;0.30;;;0.20;;
40997;SDS011;26740;45.944;12.480;2023-08-12T12:32:28;0.57;;;0.25;;
40997;SDS011;26740;45.944;12.480;2023-08-12T12:34:54;4.15;;;0.75;;
40997;SDS011;26740;45.944;12.480;2023-08-12T12:37:20;0.10;;;0.10;;
40997;SDS011;26740;45.944;12.480;2023-08-12T12:39:45;1.08;;;0.20;;
40997;SDS011;26740;45.944;12.480;2023-08-12T12:42:11;0.63;;;0.20;;
40997;SDS011;26740;45.944;12.480;2023-08-12T12:44:37;1.55;;;0.20;;
40997;SDS011;26740;45.944;12.480;2023-08-12T12:47:02;0.85;;;0.30;;
40997;SDS011;26740;45.944;12.480;2023-08-12T12:49:28;0.43;;;0.22;;
40997;SDS011;26740;45.944;12.480;2023-08-12T12:51:53;0.30;;;0.28;;
40997;SDS011;26740;45.944;12.480;2023-08-12T12:54:19;4.47;;;0.30;;
40997;SDS011;26740;45.944;12.480;2023-08-12T12:56:44;0.40;;;0.20;;
40997;SDS011;26740;45.944;12.480;2023-08-12T12:59:10;0.85;;;0.20;;
40997;SDS011;26740;45.944;12.480;2023-08-12T13:01:35;0.52;;;0.30;;
40997;SDS011;26740;45.944;12.480;2023-08-12T13:04:01;0.60;;;0.22;;
40997;SDS011;26740;45.944;12.480;2023-08-12T13:06:27;0.40;;;0.20;;
40997;SDS011;26740;45.944;12.480;2023-08-12T13:08:53;0.40;;;0.20;;
40997;SDS011;26740;45.944;12.480;2023-08-12T13:11:18;0.40;;;0.20;;
40997;SDS011;26740;45.944;12.480;2023-08-12T13:13:43;1.35;;;0.60;;
40997;SDS011;26740;45.944;12.480;2023-08-12T13:16:09;0.35;;;0.20;;
40997;SDS011;26740;45.944;12.480;2023-08-12T13:18:34;0.43;;;0.20;;
40997;SDS011;26740;45.944;12.480;2023-08-12T13:21:00;0.20;;;0.20;;
40997;SDS011;26740;45.944;12.480;2023-08-12T13:23:25;0.30;;;0.20;;
40997;SDS011;26740;45.944;12.480;2023-08-12T13:25:51;0.38;;;0.20;;
40997;SDS011;26740;45.944;12.480;2023-08-12T13:28:16;0.93;;;0.20;;
40997;SDS011;26740;45.944;12.480;2023-08-12T13:30:42;0.52;;;0.40;;
40997;SDS011;26740;45.944;12.480;2023-08-12T13:33:07;0.40;;;0.35;;
40997;SDS011;26740;45.944;12.480;2023-08-12T13:35:33;0.95;;;0.47;;
40997;SDS011;26740;45.944;12.480;2023-08-12T13:37:59;0.22;;;0.20;;
40997;SDS011;26740;45.944;12.480;2023-08-12T13:40:24;0.52;;;0.20;;
40997;SDS011;26740;45.944;12.480;2023-08-12T13:42:50;0.65;;;0.30;;
40997;SDS011;26740;45.944;12.480;2023-08-12T13:45:15;0.32;;;0.30;;
40997;SDS011;26740;45.944;12.480;2023-08-12T13:47:41;3.83;;;0.30;;
40997;SDS011;26740;45.944;12.480;2023-08-12T13:50:06;0.30;;;0.20;;
40997;SDS011;26740;45.944;12.480;2023-08-12T13:52:32;0.32;;;0.30;;
40997;SDS011;26740;45.944;12.480;2023-08-12T13:54:57;0.40;;;0.20;;
40997;SDS011;26740;45.944;12.480;2023-08-12T13:57:23;0.52;;;0.30;;
40997;SDS011;26740;45.944;12.480;2023-08-12T13:59:48;0.20;;;0.13;;
40997;SDS011;26740;45.944;12.480;2023-08-12T14:02:14;0.63;;;0.20;;
40997;SDS011;26740;45.944;12.480;2023-08-12T14:04:40;0.63;;;0.20;;
40997;SDS011;26740;45.944;12.480;2023-08-12T14:07:05;3.40;;;0.35;;
40997;SDS011;26740;45.944;12.480;2023-08-12T14:09:30;0.30;;;0.30;;
40997;SDS011;26740;45.944;12.480;2023-08-12T14:11:56;0.22;;;0.20;;
40997;SDS011;26740;45.944;12.480;2023-08-12T14:14:22;0.20;;;0.20;;
40997;SDS011;26740;45.944;12.480;2023-08-12T14:16:47;0.40;;;0.20;;
40997;SDS011;26740;45.944;12.480;2023-08-12T14:19:13;0.52;;;0.25;;
40997;SDS011;26740;45.944;12.480;2023-08-12T14:21:41;0.73;;;0.22;;
40997;SDS011;26740;45.944;12.480;2023-08-12T14:24:07;1.00;;;0.20;;
40997;SDS011;26740;45.944;12.480;2023-08-12T14:26:32;0.10;;;0.10;;
40997;SDS011;26740;45.944;12.480;2023-08-12T14:28:58;0.30;;;0.22;;
40997;SDS011;26740;45.944;12.480;2023-08-12T14:31:23;0.20;;;0.17;;
40997;SDS011;26740;45.944;12.480;2023-08-12T14:33:48;0.30;;;0.20;;
40997;SDS011;26740;45.944;12.480;2023-08-12T14:36:14;0.20;;;0.20;;
40997;SDS011;26740;45.944;12.480;2023-08-12T14:38:39;0.63;;;0.20;;
40997;SDS011;26740;45.944;12.480;2023-08-12T14:41:05;0.25;;;0.20;;
40997;SDS011;26740;45.944;12.480;2023-08-12T14:43:30;1.80;;;0.22;;